createdAt,value
2018-01-22T00:01:37.283Z,2.03
2018-01-22T00:04:05.000Z,1.98
2018-01-22T00:06:32.815Z,1.94
2018-01-22T00:09:00.635Z,1.89
2018-01-22T00:11:28.218Z,1.88
2018-01-22T00:13:55.738Z,1.86
2018-01-22T00:16:23.490Z,1.81
2018-01-22T00:18:51.205Z,1.78
2018-01-22T00:21:19.993Z,1.77
2018-01-22T00:23:47.569Z,1.79
2018-01-22T00:26:15.095Z,1.77
2018-01-22T00:28:42.618Z,1.79
2018-01-22T00:31:10.193Z,1.80
2018-01-22T00:33:37.815Z,1.76
2018-01-22T00:36:05.350Z,1.74
2018-01-22T00:38:33.151Z,1.69
2018-01-22T00:41:00.870Z,1.63
2018-01-22T00:43:28.398Z,1.65
2018-01-22T00:45:56.111Z,1.67
2018-01-22T00:48:23.661Z,1.68
2018-01-22T00:50:51.187Z,1.67
2018-01-22T00:53:18.753Z,1.67
2018-01-22T00:55:46.286Z,1.59
2018-01-22T00:58:13.813Z,1.62
2018-01-22T01:00:41.510Z,1.64
2018-01-22T01:03:09.037Z,1.65
2018-01-22T01:05:36.568Z,1.64
2018-01-22T01:08:04.166Z,1.62
2018-01-22T01:10:31.746Z,1.60
2018-01-22T01:12:59.333Z,1.60
2018-01-22T01:15:26.910Z,1.59
2018-01-22T01:17:54.437Z,1.60
2018-01-22T01:20:22.057Z,1.58
2018-01-22T01:22:49.872Z,1.60
2018-01-22T01:25:17.401Z,1.58
2018-01-22T01:27:45.111Z,1.62
2018-01-22T01:30:12.933Z,1.65
2018-01-22T01:32:40.469Z,1.59
2018-01-22T01:35:08.213Z,1.56
2018-01-22T01:37:35.882Z,1.55
2018-01-22T01:40:03.699Z,1.42
2018-01-22T01:42:31.315Z,1.42
2018-01-22T01:44:58.895Z,1.34
2018-01-22T01:47:26.409Z,1.33
2018-01-22T01:49:53.967Z,1.40
2018-01-22T01:52:21.938Z,1.41
2018-01-22T01:54:49.706Z,1.44
2018-01-22T01:57:17.322Z,1.39
2018-01-22T01:59:44.889Z,1.35
2018-01-22T02:02:12.414Z,1.26
2018-01-22T02:04:39.941Z,1.28
2018-01-22T02:07:07.513Z,1.31
2018-01-22T02:09:35.033Z,1.32
2018-01-22T02:12:02.563Z,1.32
2018-01-22T02:14:30.137Z,1.29
2018-01-22T02:16:57.706Z,1.25
2018-01-22T02:19:25.382Z,1.25
2018-01-22T02:21:53.043Z,1.24
2018-01-22T02:24:20.727Z,1.27
2018-01-22T02:26:48.437Z,1.31
2018-01-22T02:29:16.005Z,1.31
2018-01-22T02:31:43.530Z,1.30
2018-01-22T02:34:11.054Z,1.27
2018-01-22T02:36:38.618Z,1.30
2018-01-22T02:39:06.134Z,1.33
2018-01-22T02:41:33.698Z,1.37
2018-01-22T02:44:01.265Z,1.35
2018-01-22T02:46:28.978Z,1.39
2018-01-22T02:48:56.511Z,1.35
2018-01-22T02:51:24.314Z,1.30
2018-01-22T02:53:51.858Z,1.32
2018-01-22T02:56:19.443Z,1.27
2018-01-22T02:58:47.010Z,1.27
2018-01-22T03:01:14.538Z,1.29
2018-01-22T03:03:42.303Z,1.30
2018-01-22T03:06:09.874Z,1.27
2018-01-22T03:08:37.539Z,1.25
2018-01-22T03:11:05.255Z,1.22
2018-01-22T03:13:32.838Z,1.26
2018-01-22T03:16:00.430Z,1.24
2018-01-22T03:18:27.990Z,1.20
2018-01-22T03:20:55.558Z,1.29
2018-01-22T03:23:23.356Z,1.26
2018-01-22T03:25:51.264Z,1.25
2018-01-22T03:28:18.833Z,1.21
2018-01-22T03:30:46.501Z,1.21
2018-01-22T03:33:14.026Z,1.18
2018-01-22T03:35:41.604Z,1.15
2018-01-22T03:38:09.134Z,1.23
2018-01-22T03:40:36.658Z,1.20
2018-01-22T03:43:04.490Z,1.16
2018-01-22T03:45:32.108Z,1.14
2018-01-22T03:47:59.639Z,1.13
2018-01-22T03:50:27.213Z,1.17
2018-01-22T03:52:54.738Z,1.16
2018-01-22T03:55:22.267Z,1.13
2018-01-22T03:57:49.847Z,1.09
2018-01-22T04:00:17.614Z,1.08
2018-01-22T04:02:45.234Z,1.10
2018-01-22T04:05:12.809Z,1.11
2018-01-22T04:07:40.470Z,1.11
2018-01-22T04:10:08.006Z,1.09
2018-01-22T04:12:35.702Z,1.10
2018-01-22T04:15:03.274Z,1.17
2018-01-22T04:17:31.039Z,1.16
2018-01-22T04:19:58.610Z,1.18
2018-01-22T04:22:26.190Z,1.18
2018-01-22T04:24:53.893Z,1.16
2018-01-22T04:27:21.714Z,1.19
2018-01-22T04:29:49.428Z,1.17
2018-01-22T04:32:17.014Z,1.17
2018-01-22T04:34:44.682Z,1.16
2018-01-22T04:37:12.214Z,1.15
2018-01-22T04:39:39.742Z,1.18
2018-01-22T04:42:07.342Z,1.21
2018-01-22T04:44:34.870Z,1.25
2018-01-22T04:47:02.393Z,1.19
2018-01-22T04:49:30.071Z,1.22
2018-01-22T04:51:57.635Z,1.26
2018-01-22T04:54:25.614Z,1.30
2018-01-22T04:56:53.181Z,1.30
2018-01-22T04:59:20.706Z,1.31
2018-01-22T05:01:48.281Z,1.31
2018-01-22T05:04:16.079Z,1.30
2018-01-22T05:06:43.694Z,1.36
2018-01-22T05:09:11.229Z,1.33
2018-01-22T05:11:38.813Z,1.38
2018-01-22T05:14:06.402Z,1.32
2018-01-22T05:16:33.930Z,1.33
2018-01-22T05:19:01.787Z,1.38
2018-01-22T05:21:29.306Z,1.43
2018-01-22T05:23:56.930Z,1.43
2018-01-22T05:26:24.646Z,1.38
2018-01-22T05:28:52.174Z,1.41
2018-01-22T05:31:19.694Z,1.39
2018-01-22T05:33:47.292Z,1.38
2018-01-22T05:36:14.826Z,1.32
2018-01-22T05:38:42.374Z,1.34
2018-01-22T05:41:09.946Z,1.37
2018-01-22T05:43:37.472Z,1.34
2018-01-22T05:46:05.255Z,1.33
2018-01-22T05:48:32.999Z,1.35
2018-01-22T05:51:00.719Z,1.39
2018-01-22T05:53:28.439Z,1.35
2018-01-22T05:55:56.003Z,1.34
2018-01-22T05:58:23.570Z,1.34
2018-01-22T06:00:51.174Z,1.30
2018-01-22T06:03:18.707Z,1.34
2018-01-22T06:05:46.315Z,1.37
2018-01-22T06:08:13.947Z,1.41
2018-01-22T06:10:41.659Z,1.42
2018-01-22T06:13:09.352Z,1.39
2018-01-22T06:15:36.909Z,1.44
2018-01-22T06:18:04.538Z,1.49
2018-01-22T06:20:32.231Z,1.53
2018-01-22T06:22:59.761Z,1.50
2018-01-22T06:25:27.346Z,1.49
2018-01-22T06:27:55.095Z,1.53
2018-01-22T06:30:22.688Z,1.57
2018-01-22T06:32:50.242Z,1.48
2018-01-22T06:35:17.943Z,1.49
2018-01-22T06:37:45.547Z,1.47
2018-01-22T06:40:13.086Z,1.47
2018-01-22T06:42:40.726Z,1.52
2018-01-22T06:45:08.276Z,1.59
2018-01-22T06:47:35.818Z,1.58
2018-01-22T06:50:03.525Z,1.63
2018-01-22T06:52:31.064Z,1.61
2018-01-22T06:54:58.880Z,1.57
2018-01-22T06:57:26.422Z,1.54
2018-01-22T06:59:53.954Z,1.56
2018-01-22T07:02:21.497Z,1.62
2018-01-22T07:04:49.064Z,1.67
2018-01-22T07:07:16.654Z,1.64
2018-01-22T07:09:44.290Z,1.66
2018-01-22T07:12:11.843Z,1.65
2018-01-22T07:14:39.373Z,1.56
2018-01-22T07:17:07.698Z,1.59
2018-01-22T07:19:35.400Z,1.58
2018-01-22T07:22:03.128Z,1.60
2018-01-22T07:24:30.851Z,1.57
2018-01-22T07:26:58.417Z,1.59
2018-01-22T07:29:26.053Z,1.63
2018-01-22T07:31:53.661Z,1.65
2018-01-22T07:34:21.275Z,1.67
2018-01-22T07:36:49.010Z,1.70
2018-01-22T07:39:16.641Z,1.71
2018-01-22T07:41:44.343Z,1.69
2018-01-22T07:44:11.942Z,1.69
2018-01-22T07:46:39.758Z,1.70
2018-01-22T07:49:07.491Z,1.76
2018-01-22T07:51:35.496Z,1.78
2018-01-22T07:54:03.390Z,1.85
2018-01-22T07:56:31.066Z,1.88
2018-01-22T07:58:58.654Z,1.84
2018-01-22T08:01:26.328Z,1.81
2018-01-22T08:03:53.953Z,1.82
2018-01-22T08:06:21.853Z,1.81
2018-01-22T08:08:49.689Z,1.79
2018-01-22T08:11:17.341Z,1.76
2018-01-22T08:13:44.926Z,1.79
2018-01-22T08:16:12.639Z,1.81
2018-01-22T08:18:40.364Z,1.81
2018-01-22T08:21:08.110Z,1.85
2018-01-22T08:23:35.651Z,1.91
2018-01-22T08:26:03.350Z,1.90
2018-01-22T08:28:30.889Z,1.89
2018-01-22T08:30:59.062Z,1.87
2018-01-22T08:33:26.711Z,1.86
2018-01-22T08:35:54.450Z,1.89
2018-01-22T08:38:22.825Z,1.86
2018-01-22T08:40:50.460Z,1.91
2018-01-22T08:43:18.042Z,1.94
2018-01-22T08:45:45.595Z,1.88
2018-01-22T08:48:13.162Z,1.81
2018-01-22T08:50:40.934Z,1.84
2018-01-22T08:53:08.575Z,1.81
2018-01-22T08:55:36.158Z,1.86
2018-01-22T08:58:03.690Z,1.90
2018-01-22T09:00:31.230Z,1.93
2018-01-22T09:02:58.810Z,1.99
2018-01-22T09:05:26.479Z,2.00
2018-01-22T09:07:54.192Z,1.99
2018-01-22T09:10:21.879Z,2.01
2018-01-22T09:12:49.594Z,2.06
2018-01-22T09:15:17.194Z,2.06
2018-01-22T09:17:44.710Z,2.13
2018-01-22T09:20:12.764Z,2.14
2018-01-22T09:22:41.058Z,2.22
2018-01-22T09:25:08.884Z,2.27
2018-01-22T09:27:36.456Z,2.24
2018-01-22T09:30:04.030Z,2.23
2018-01-22T09:32:31.744Z,2.17
2018-01-22T09:34:59.358Z,2.20
2018-01-22T09:37:26.992Z,2.21
2018-01-22T09:39:54.619Z,2.22
2018-01-22T09:42:22.141Z,2.14
2018-01-22T09:44:50.026Z,2.13
2018-01-22T09:47:17.551Z,2.15
2018-01-22T09:49:45.077Z,2.18
2018-01-22T09:52:12.654Z,2.10
2018-01-22T09:54:40.187Z,2.01
2018-01-22T09:57:07.829Z,2.00
2018-01-22T09:59:35.504Z,2.01
2018-01-22T10:02:03.030Z,2.06
2018-01-22T10:04:30.568Z,1.99
2018-01-22T10:06:58.098Z,1.88
2018-01-22T10:09:25.799Z,1.92
2018-01-22T10:11:53.393Z,1.97
2018-01-22T10:14:21.544Z,1.99
2018-01-22T10:16:49.107Z,2.04
2018-01-22T10:19:16.674Z,2.08
2018-01-22T10:21:44.498Z,2.09
2018-01-22T10:24:12.039Z,2.10
2018-01-22T10:26:39.835Z,2.04
2018-01-22T10:29:07.652Z,2.10
2018-01-22T10:31:35.182Z,2.22
2018-01-22T10:34:02.888Z,2.17
2018-01-22T10:36:30.508Z,2.15
2018-01-22T10:38:58.038Z,2.18
2018-01-22T10:41:25.741Z,2.18
2018-01-22T10:43:53.360Z,2.20
2018-01-22T10:46:20.983Z,2.17
2018-01-22T10:48:48.521Z,2.16
2018-01-22T10:51:16.413Z,2.16
2018-01-22T10:53:43.958Z,2.18
2018-01-22T10:56:11.541Z,2.29
2018-01-22T10:58:39.126Z,2.38
2018-01-22T11:01:06.675Z,2.38
2018-01-22T11:03:34.205Z,2.43
2018-01-22T11:06:01.746Z,2.37
2018-01-22T11:08:29.286Z,2.36
2018-01-22T11:10:56.973Z,2.36
2018-01-22T11:13:25.042Z,2.39
2018-01-22T11:15:58.286Z,2.35
2018-01-22T11:18:26.031Z,2.26
2018-01-22T11:20:53.574Z,2.33
2018-01-22T11:23:21.118Z,2.17
2018-01-22T11:25:48.875Z,2.10
2018-01-22T11:28:16.458Z,2.01
2018-01-22T11:30:43.998Z,2.07
2018-01-22T11:33:11.534Z,1.98
2018-01-22T11:35:39.085Z,2.10
2018-01-22T11:38:06.770Z,2.10
2018-01-22T11:40:34.494Z,1.91
2018-01-22T11:43:02.118Z,1.86
2018-01-22T11:45:29.831Z,1.92
2018-01-22T11:47:57.762Z,1.92
2018-01-22T11:50:25.296Z,1.99
2018-01-22T11:52:53.023Z,2.04
2018-01-22T11:55:20.560Z,2.00
2018-01-22T11:57:48.118Z,2.00
2018-01-22T12:00:15.727Z,1.99
2018-01-22T12:02:43.262Z,2.04
2018-01-22T12:05:11.062Z,1.99
2018-01-22T12:07:38.642Z,1.70
2018-01-22T12:10:06.310Z,1.61
2018-01-22T12:12:33.864Z,1.63
2018-01-22T12:15:01.522Z,1.67
2018-01-22T12:17:29.102Z,1.73
2018-01-22T12:19:56.846Z,1.81
2018-01-22T12:22:24.736Z,1.87
2018-01-22T12:24:52.313Z,1.95
2018-01-22T12:27:20.031Z,1.95
2018-01-22T12:29:47.566Z,1.92
2018-01-22T12:32:15.367Z,1.85
2018-01-22T12:34:42.913Z,1.84
2018-01-22T12:37:10.453Z,1.83
2018-01-22T12:39:38.047Z,1.70
2018-01-22T12:42:05.591Z,1.71
2018-01-22T12:44:33.130Z,1.68
2018-01-22T12:47:00.765Z,1.67
2018-01-22T12:49:28.399Z,1.61
2018-01-22T12:51:55.939Z,1.45
2018-01-22T12:54:23.491Z,1.47
2018-01-22T12:56:51.047Z,1.38
2018-01-22T12:59:18.754Z,1.41
2018-01-22T13:01:46.319Z,1.30
2018-01-22T13:04:13.862Z,1.28
2018-01-22T13:06:41.507Z,1.28
2018-01-22T13:09:09.042Z,1.32
2018-01-22T13:11:36.754Z,1.33
2018-01-22T13:14:04.342Z,1.27
2018-01-22T13:16:31.872Z,1.38
2018-01-22T13:18:59.412Z,1.39
2018-01-22T13:21:26.998Z,1.38
2018-01-22T13:23:54.598Z,1.40
2018-01-22T13:26:22.134Z,1.37
2018-01-22T13:28:49.774Z,1.36
2018-01-22T13:31:17.310Z,1.33
2018-01-22T13:33:44.847Z,1.41
2018-01-22T13:36:12.535Z,1.48
2018-01-22T13:38:40.070Z,1.44
2018-01-22T13:41:13.521Z,1.43
2018-01-22T13:43:41.057Z,1.39
2018-01-22T13:46:08.821Z,1.31
2018-01-22T13:48:36.375Z,1.33
2018-01-22T13:51:03.917Z,1.19
2018-01-22T13:53:31.510Z,1.20
2018-01-22T13:55:59.222Z,1.16
2018-01-22T13:58:26.926Z,1.12
2018-01-22T14:00:54.526Z,1.10
2018-01-22T14:03:22.078Z,1.08
2018-01-22T14:05:49.783Z,1.00
2018-01-22T14:08:17.580Z,1.05
2018-01-22T14:10:45.114Z,0.99
2018-01-22T14:13:12.916Z,1.02
2018-01-22T14:15:40.490Z,1.01
2018-01-22T14:18:08.353Z,0.93
2018-01-22T14:20:35.894Z,0.91
2018-01-22T14:23:03.425Z,0.87
2018-01-22T14:25:31.108Z,0.79
2018-01-22T14:27:58.649Z,0.76
2018-01-22T14:30:26.346Z,0.76
2018-01-22T14:32:53.886Z,0.63
2018-01-22T14:35:21.416Z,0.60
2018-01-22T14:37:48.985Z,0.57
2018-01-22T14:40:16.582Z,0.54
2018-01-22T14:42:44.163Z,0.52
2018-01-22T14:45:11.698Z,0.52
2018-01-22T14:47:39.299Z,0.51
2018-01-22T14:50:06.895Z,0.53
2018-01-22T14:52:34.603Z,0.44
2018-01-22T14:55:02.334Z,0.50
2018-01-22T14:57:29.938Z,0.49
2018-01-22T14:59:57.490Z,0.48
2018-01-22T15:02:25.034Z,0.51
2018-01-22T15:04:52.565Z,0.54
2018-01-22T15:07:20.142Z,0.51
2018-01-22T15:09:47.686Z,0.47
2018-01-22T15:12:15.442Z,0.49
2018-01-22T15:14:42.990Z,0.48
2018-01-22T15:17:10.522Z,0.45
2018-01-22T15:19:38.340Z,0.42
2018-01-22T15:22:05.947Z,0.41
2018-01-22T15:24:33.522Z,0.36
2018-01-22T15:27:01.197Z,0.36
2018-01-22T15:29:28.735Z,0.37
2018-01-22T15:31:56.266Z,0.28
2018-01-22T15:34:23.829Z,0.27
2018-01-22T15:36:51.522Z,0.34
2018-01-22T15:39:19.169Z,0.33
2018-01-22T15:41:46.737Z,0.28
2018-01-22T15:44:14.266Z,0.32
2018-01-22T15:46:41.827Z,0.42
2018-01-22T15:49:09.370Z,0.51
2018-01-22T15:51:36.952Z,0.56
2018-01-22T15:54:04.482Z,0.57
2018-01-22T15:56:32.236Z,0.60
2018-01-22T15:58:59.777Z,0.58
2018-01-22T16:01:27.329Z,0.57
2018-01-22T16:03:54.942Z,0.54
2018-01-22T16:06:22.496Z,0.55
2018-01-22T16:08:50.191Z,0.57
2018-01-22T16:11:17.930Z,0.66
2018-01-22T16:13:45.649Z,0.71
2018-01-22T16:16:13.303Z,0.74
2018-01-22T16:18:40.858Z,0.73
2018-01-22T16:21:08.541Z,0.66
2018-01-22T16:23:36.082Z,0.69
2018-01-22T16:26:03.622Z,0.66
2018-01-22T16:28:31.395Z,0.63
2018-01-22T16:30:59.113Z,0.67
2018-01-22T16:33:26.666Z,0.66
2018-01-22T16:35:54.449Z,0.61
2018-01-22T16:38:22.167Z,0.63
2018-01-22T16:40:49.890Z,0.66
2018-01-22T16:43:17.422Z,0.67
2018-01-22T16:45:44.986Z,0.62
2018-01-22T16:48:12.566Z,0.59
2018-01-22T16:50:40.097Z,0.59
2018-01-22T16:53:07.641Z,0.58
2018-01-22T16:55:35.217Z,0.60
2018-01-22T16:58:02.755Z,0.63
2018-01-22T17:00:30.302Z,0.60
2018-01-22T17:02:58.118Z,0.64
2018-01-22T17:05:25.658Z,0.62
2018-01-22T17:07:53.190Z,0.69
2018-01-22T17:10:20.891Z,0.77
2018-01-22T17:12:48.426Z,0.77
2018-01-22T17:15:15.977Z,0.83
2018-01-22T17:17:43.650Z,0.79
2018-01-22T17:20:11.248Z,0.85
2018-01-22T17:22:38.786Z,0.79
2018-01-22T17:25:06.374Z,0.77
2018-01-22T17:27:34.022Z,0.73
2018-01-22T17:30:01.668Z,0.80
2018-01-22T17:32:29.362Z,0.84
2018-01-22T17:34:56.897Z,0.83
2018-01-22T17:37:24.598Z,0.86
2018-01-22T17:39:52.147Z,0.93
2018-01-22T17:42:19.900Z,0.82
2018-01-22T17:44:47.457Z,0.80
2018-01-22T17:47:15.070Z,0.83
2018-01-22T17:49:42.682Z,0.75
2018-01-22T17:52:10.266Z,0.82
2018-01-22T17:54:37.803Z,0.84
2018-01-22T17:57:05.402Z,0.83
2018-01-22T17:59:32.978Z,0.88
2018-01-22T18:02:00.778Z,0.87
2018-01-22T18:04:28.426Z,0.87
2018-01-22T18:06:56.208Z,0.90
2018-01-22T18:09:23.793Z,0.90
2018-01-22T18:11:51.333Z,0.89
2018-01-22T18:14:19.164Z,0.88
2018-01-22T18:16:46.778Z,0.74
2018-01-22T18:19:14.316Z,0.78
2018-01-22T18:21:41.890Z,0.81
2018-01-22T18:24:09.426Z,0.78
2018-01-22T18:26:36.981Z,0.72
2018-01-22T18:29:04.598Z,0.63
2018-01-22T18:31:32.388Z,0.58
2018-01-22T18:33:59.917Z,0.52
2018-01-22T18:36:27.474Z,0.53
2018-01-22T18:38:55.068Z,0.45
2018-01-22T18:41:22.654Z,0.42
2018-01-22T18:43:50.266Z,0.38
2018-01-22T18:46:17.790Z,0.35
2018-01-22T18:48:45.611Z,0.43
2018-01-22T18:51:13.258Z,0.50
2018-01-22T18:53:40.849Z,0.46
2018-01-22T18:56:08.423Z,0.37
2018-01-22T18:58:35.961Z,0.40
2018-01-22T19:01:03.571Z,0.44
2018-01-22T19:03:31.208Z,0.50
2018-01-22T19:05:58.922Z,0.42
2018-01-22T19:08:26.516Z,0.39
2018-01-22T19:10:54.042Z,0.43
2018-01-22T19:13:21.582Z,0.44
2018-01-22T19:15:49.117Z,0.36
2018-01-22T19:18:16.739Z,0.32
2018-01-22T19:20:44.293Z,0.34
2018-01-22T19:23:12.030Z,0.39
2018-01-22T19:25:39.582Z,0.44
2018-01-22T19:28:07.110Z,0.41
2018-01-22T19:30:34.815Z,0.39
2018-01-22T19:33:02.360Z,0.42
2018-01-22T19:35:29.912Z,0.44
2018-01-22T19:37:57.667Z,0.45
2018-01-22T19:40:25.383Z,0.42
2018-01-22T19:42:53.013Z,0.38
2018-01-22T19:45:20.727Z,0.36
2018-01-22T19:47:48.253Z,0.34
2018-01-22T19:50:15.811Z,0.38
2018-01-22T19:52:43.354Z,0.35
2018-01-22T19:55:10.964Z,0.33
2018-01-22T19:57:38.498Z,0.31
2018-01-22T20:00:06.070Z,0.30
2018-01-22T20:02:33.817Z,0.25
2018-01-22T20:05:01.366Z,0.24
2018-01-22T20:07:28.949Z,0.26
2018-01-22T20:09:56.486Z,0.23
2018-01-22T20:12:24.045Z,0.16
2018-01-22T20:14:51.622Z,0.13
2018-01-22T20:17:19.150Z,0.17
2018-01-22T20:19:46.927Z,0.22
2018-01-22T20:22:14.585Z,0.24
2018-01-22T20:24:42.147Z,0.18
2018-01-22T20:27:09.712Z,0.23
2018-01-22T20:29:37.310Z,0.23
2018-01-22T20:32:04.886Z,0.23
2018-01-22T20:34:32.579Z,0.22
2018-01-22T20:37:00.194Z,0.25
2018-01-22T20:39:27.808Z,0.21
2018-01-22T20:41:55.498Z,0.22
2018-01-22T20:44:23.079Z,0.26
2018-01-22T20:46:50.618Z,0.28
2018-01-22T20:49:18.154Z,0.27
2018-01-22T20:51:45.702Z,0.31
2018-01-22T20:54:13.705Z,0.31
2018-01-22T20:56:41.355Z,0.32
2018-01-22T20:59:08.890Z,0.30
2018-01-22T21:01:36.430Z,0.17
2018-01-22T21:04:04.014Z,0.15
2018-01-22T21:06:31.566Z,0.12
2018-01-22T21:08:59.324Z,0.14
2018-01-22T21:11:26.854Z,0.14
2018-01-22T21:13:54.470Z,0.13
2018-01-22T21:16:22.022Z,0.10
2018-01-22T21:18:49.795Z,0.08
2018-01-22T21:21:17.487Z,0.06
2018-01-22T21:23:45.132Z,0.10
2018-01-22T21:26:12.662Z,0.16
2018-01-22T21:28:40.467Z,0.09
2018-01-22T21:31:08.006Z,0.12
2018-01-22T21:33:35.592Z,0.10
2018-01-22T21:36:03.193Z,0.09
2018-01-22T21:38:30.893Z,0.08
2018-01-22T21:40:58.548Z,0.01
2018-01-22T21:43:26.275Z,-0.10
2018-01-22T21:45:53.890Z,-0.13
2018-01-22T21:48:21.430Z,-0.16
2018-01-22T21:50:48.982Z,-0.12
2018-01-22T21:53:16.714Z,-0.06
2018-01-22T21:55:45.293Z,-0.09
2018-01-22T21:58:12.874Z,-0.05
2018-01-22T22:00:40.421Z,-0.12
2018-01-22T22:03:07.970Z,-0.12
2018-01-22T22:05:35.638Z,-0.09
2018-01-22T22:08:03.329Z,-0.06
2018-01-22T22:10:30.922Z,-0.11
2018-01-22T22:12:58.666Z,-0.10
2018-01-22T22:15:26.312Z,-0.05
2018-01-22T22:17:53.936Z,-0.07
2018-01-22T22:20:21.649Z,-0.06
2018-01-22T22:22:49.299Z,-0.08
2018-01-22T22:25:17.233Z,-0.12
2018-01-22T22:27:44.966Z,-0.10
2018-01-22T22:30:12.618Z,-0.13
2018-01-22T22:32:40.162Z,-0.16
2018-01-22T22:35:07.762Z,-0.14
2018-01-22T22:37:35.379Z,-0.09
2018-01-22T22:40:03.046Z,-0.08
2018-01-22T22:42:30.716Z,-0.03
2018-01-22T22:44:58.246Z,0.04
2018-01-22T22:47:25.826Z,0.16
2018-01-22T22:49:53.377Z,0.17
2018-01-22T22:52:21.078Z,0.15
2018-01-22T22:54:48.662Z,0.21
2018-01-22T22:57:16.194Z,0.20
2018-01-22T22:59:43.773Z,0.17
2018-01-22T23:02:11.313Z,0.17
2018-01-22T23:04:38.854Z,0.18
2018-01-22T23:07:06.454Z,0.20
2018-01-22T23:09:34.102Z,0.18
2018-01-22T23:12:01.712Z,0.19
2018-01-22T23:14:29.340Z,0.11
2018-01-22T23:16:56.910Z,0.12
2018-01-22T23:19:24.479Z,0.16
2018-01-22T23:21:52.090Z,0.18
2018-01-22T23:24:19.678Z,0.22
2018-01-22T23:26:47.217Z,0.21
2018-01-22T23:29:14.815Z,0.21
2018-01-22T23:31:42.390Z,0.27
2018-01-22T23:34:09.986Z,0.24
2018-01-22T23:36:37.513Z,0.26
2018-01-22T23:39:05.148Z,0.26
2018-01-22T23:41:32.680Z,0.29
2018-01-22T23:44:00.214Z,0.27
2018-01-22T23:46:27.795Z,0.25
2018-01-22T23:48:55.335Z,0.24
2018-01-22T23:51:22.874Z,0.19
2018-01-22T23:53:50.458Z,0.10
2018-01-22T23:56:18.162Z,0.06
2018-01-22T23:58:45.747Z,0.01
